createdAt,value
2023-08-12T00:01:12.055Z,101144.66
2023-08-12T00:03:39.113Z,101141.19
2023-08-12T00:06:06.461Z,101144.03
2023-08-12T00:08:33.411Z,101140.47
2023-08-12T00:11:00.596Z,101137.78
2023-08-12T00:13:27.267Z,101135.06
2023-08-12T00:15:56.047Z,101131.53
2023-08-12T00:18:23.628Z,101129.00
2023-08-12T00:20:52.692Z,101133.81
2023-08-12T00:23:19.633Z,101134.91
2023-08-12T00:25:46.455Z,101136.03
2023-08-12T00:28:13.925Z,101128.78
2023-08-12T00:30:41.263Z,101132.38
2023-08-12T00:33:08.997Z,101136.91
2023-08-12T00:35:36.364Z,101133.19
2023-08-12T00:38:03.202Z,101128.69
2023-08-12T00:40:29.897Z,101134.19
2023-08-12T00:42:56.810Z,101123.28
2023-08-12T00:45:23.486Z,101126.09
2023-08-12T00:47:52.398Z,101123.41
2023-08-12T00:50:19.332Z,101118.81
2023-08-12T00:52:46.467Z,101116.06
2023-08-12T00:55:14.044Z,101112.41
2023-08-12T00:57:40.840Z,101111.53
2023-08-12T01:00:11.476Z,101108.78
2023-08-12T01:02:46.499Z,101108.00
2023-08-12T01:05:13.440Z,101107.13
2023-08-12T01:07:40.038Z,101103.53
2023-08-12T01:10:07.420Z,101094.50
2023-08-12T01:12:41.577Z,101099.06
2023-08-12T01:15:17.024Z,101098.19
2023-08-12T01:17:45.035Z,101090.91
2023-08-12T01:20:15.862Z,101089.22
2023-08-12T01:22:45.821Z,101097.50
2023-08-12T01:25:12.747Z,101080.16
2023-08-12T01:27:39.511Z,101074.78
2023-08-12T01:30:09.055Z,101065.75
2023-08-12T01:32:40.255Z,101067.66
2023-08-12T01:35:18.760Z,101067.66
2023-08-12T01:37:49.131Z,101073.13
2023-08-12T01:40:18.085Z,101073.00
2023-08-12T01:42:46.896Z,101073.84
2023-08-12T01:45:15.090Z,101066.47
2023-08-12T01:47:45.066Z,101061.84
2023-08-12T01:50:11.926Z,101059.09
2023-08-12T01:52:39.434Z,101057.22
2023-08-12T01:55:06.384Z,101054.47
2023-08-12T01:57:33.013Z,101058.06
2023-08-12T02:00:02.958Z,101046.03
2023-08-12T02:02:47.931Z,101035.91
2023-08-12T02:05:17.836Z,101041.41
2023-08-12T02:07:48.562Z,101049.69
2023-08-12T02:10:15.820Z,101044.22
2023-08-12T02:12:42.624Z,101043.28
2023-08-12T02:15:09.658Z,101045.09
2023-08-12T02:17:36.542Z,101030.53
2023-08-12T02:20:04.920Z,101038.81
2023-08-12T02:22:31.560Z,101039.75
2023-08-12T02:24:58.541Z,101049.69
2023-08-12T02:27:26.751Z,101048.63
2023-08-12T02:29:53.544Z,101044.00
2023-08-12T02:32:20.472Z,101044.84
2023-08-12T02:34:47.170Z,101045.66
2023-08-12T02:37:14.161Z,101044.59
2023-08-12T02:39:41.117Z,101053.66
2023-08-12T02:42:08.881Z,101048.94
2023-08-12T02:44:35.485Z,101046.09
2023-08-12T02:47:02.225Z,101042.19
2023-08-12T02:49:29.044Z,101036.59
2023-08-12T02:51:55.816Z,101030.88
2023-08-12T02:54:22.456Z,101034.31
2023-08-12T02:56:51.126Z,101040.53
2023-08-12T02:59:18.091Z,101050.47
2023-08-12T03:01:44.778Z,101051.34
2023-08-12T03:04:12.118Z,101055.72
2023-08-12T03:06:38.817Z,101050.88
2023-08-12T03:09:07.747Z,101043.50
2023-08-12T03:11:34.752Z,101059.81
2023-08-12T03:14:05.350Z,101049.63
2023-08-12T03:16:32.285Z,101050.56
2023-08-12T03:18:58.948Z,101045.78
2023-08-12T03:21:25.672Z,101054.72
2023-08-12T03:23:53.208Z,101052.84
2023-08-12T03:26:21.913Z,101053.56
2023-08-12T03:28:49.110Z,101056.38
2023-08-12T03:31:18.764Z,101058.28
2023-08-12T03:33:46.183Z,101061.97
2023-08-12T03:36:14.214Z,101060.06
2023-08-12T03:38:42.882Z,101066.44
2023-08-12T03:41:13.330Z,101052.53
2023-08-12T03:43:40.731Z,101040.59
2023-08-12T03:46:07.461Z,101039.84
2023-08-12T03:48:34.224Z,101038.06
2023-08-12T03:51:01.069Z,101037.19
2023-08-12T03:53:27.868Z,101037.28
2023-08-12T03:55:55.865Z,101036.47
2023-08-12T03:58:23.723Z,101039.28
2023-08-12T04:00:50.423Z,101043.84
2023-08-12T04:03:19.860Z,101047.56
2023-08-12T04:05:53.184Z,101042.06
2023-08-12T04:08:24.897Z,101058.66
2023-08-12T04:10:52.985Z,101053.47
2023-08-12T04:13:20.426Z,101048.97
2023-08-12T04:15:56.574Z,101046.19
2023-08-12T04:18:25.910Z,101051.53
2023-08-12T04:20:54.172Z,101054.25
2023-08-12T04:23:21.132Z,101049.72
2023-08-12T04:25:49.234Z,101044.25
2023-08-12T04:28:17.218Z,101055.22
2023-08-12T04:30:45.697Z,101060.97
2023-08-12T04:33:14.289Z,101067.47
2023-08-12T04:35:42.053Z,101077.66
2023-08-12T04:38:09.759Z,101068.84
2023-08-12T04:40:41.902Z,101068.06
2023-08-12T04:43:10.269Z,101060.78
2023-08-12T04:45:37.433Z,101069.88
2023-08-12T04:48:05.912Z,101076.38
2023-08-12T04:50:35.859Z,101078.25
2023-08-12T04:53:02.819Z,101077.38
2023-08-12T04:55:29.805Z,101081.97
2023-08-12T04:57:58.151Z,101078.25
2023-08-12T05:00:25.145Z,101073.56
2023-08-12T05:02:52.536Z,101082.63
2023-08-12T05:05:20.738Z,101084.38
2023-08-12T05:07:50.947Z,101068.72
2023-08-12T05:10:20.246Z,101068.56
2023-08-12T05:12:48.521Z,101069.28
2023-08-12T05:15:15.485Z,101072.16
2023-08-12T05:17:43.904Z,101076.56
2023-08-12T05:20:12.445Z,101074.66
2023-08-12T05:22:39.116Z,101075.63
2023-08-12T05:25:06.795Z,101078.16
2023-08-12T05:27:33.513Z,101081.88
2023-08-12T05:30:00.415Z,101069.91
2023-08-12T05:32:27.410Z,101065.22
2023-08-12T05:34:54.669Z,101070.63
2023-08-12T05:37:21.317Z,101071.41
2023-08-12T05:39:47.981Z,101078.56
2023-08-12T05:42:14.847Z,101067.50
2023-08-12T05:44:44.646Z,101073.69
2023-08-12T05:47:11.686Z,101078.16
2023-08-12T05:49:38.696Z,101074.47
2023-08-12T05:52:05.673Z,101070.66
2023-08-12T05:54:32.501Z,101065.19
2023-08-12T05:56:59.904Z,101080.63
2023-08-12T05:59:26.635Z,101072.47
2023-08-12T06:01:55.142Z,101068.75
2023-08-12T06:04:21.831Z,101082.44
2023-08-12T06:06:48.528Z,101074.22
2023-08-12T06:09:15.322Z,101074.22
2023-08-12T06:11:42.162Z,101061.50
2023-08-12T06:14:08.856Z,101070.53
2023-08-12T06:16:35.589Z,101068.75
2023-08-12T06:19:02.753Z,101066.97
2023-08-12T06:21:29.412Z,101070.53
2023-08-12T06:23:56.989Z,101067.63
2023-08-12T06:26:24.025Z,101059.16
2023-08-12T06:28:50.715Z,101046.97
2023-08-12T06:31:17.635Z,101045.94
2023-08-12T06:33:44.287Z,101042.94
2023-08-12T06:36:11.141Z,101039.09
2023-08-12T06:38:38.915Z,101039.84
2023-08-12T06:41:05.648Z,101036.97
2023-08-12T06:43:32.569Z,101031.34
2023-08-12T06:45:59.283Z,101033.97
2023-08-12T06:48:26.257Z,101031.06
2023-08-12T06:50:57.748Z,101019.91
2023-08-12T06:53:27.226Z,101009.66
2023-08-12T06:55:55.924Z,101007.75
2023-08-12T06:58:24.563Z,101019.41
2023-08-12T07:00:54.427Z,101011.81
2023-08-12T07:03:21.749Z,101003.47
2023-08-12T07:05:48.534Z,101001.41
2023-08-12T07:08:15.462Z,101002.88
2023-08-12T07:10:42.755Z,101002.72
2023-08-12T07:13:09.486Z,101012.59
2023-08-12T07:15:36.759Z,101002.25
2023-08-12T07:18:04.833Z,100993.44
2023-08-12T07:20:31.875Z,100997.44
2023-08-12T07:22:58.497Z,100996.84
2023-08-12T07:25:25.485Z,100984.81
2023-08-12T07:27:53.242Z,100994.75
2023-08-12T07:30:20.100Z,101001.72
2023-08-12T07:32:46.863Z,100995.75
2023-08-12T07:35:13.603Z,100998.41
2023-08-12T07:37:40.295Z,101005.31
2023-08-12T07:40:07.749Z,101010.31
2023-08-12T07:42:34.389Z,101005.22
2023-08-12T07:45:01.048Z,101000.53
2023-08-12T07:47:27.855Z,100996.66
2023-08-12T07:49:54.477Z,100976.75
2023-08-12T07:52:22.127Z,100984.22
2023-08-12T07:54:48.963Z,100993.25
2023-08-12T07:57:15.584Z,100997.72
2023-08-12T07:59:42.328Z,100998.44
2023-08-12T08:02:09.076Z,100994.38
2023-08-12T08:04:35.797Z,100993.91
2023-08-12T08:07:04.651Z,100995.34
2023-08-12T08:09:34.728Z,100993.72
2023-08-12T08:12:02.309Z,100984.34
2023-08-12T08:14:29.007Z,100988.38
2023-08-12T08:16:55.796Z,100980.66
2023-08-12T08:19:22.401Z,100985.13
2023-08-12T08:21:49.206Z,100994.44
2023-08-12T08:24:17.425Z,100997.09
2023-08-12T08:26:46.633Z,100990.44
2023-08-12T08:29:14.663Z,100990.31
2023-08-12T08:31:41.526Z,100986.72
2023-08-12T08:34:08.379Z,100990.31
2023-08-12T08:36:35.076Z,100991.13
2023-08-12T08:39:01.799Z,100992.13
2023-08-12T08:41:32.091Z,100990.16
2023-08-12T08:44:06.689Z,100992.72
2023-08-12T08:46:33.530Z,100980.41
2023-08-12T08:49:04.070Z,100983.63
2023-08-12T08:51:32.117Z,100976.00
2023-08-12T08:54:03.897Z,100974.03
2023-08-12T08:56:33.227Z,100974.84
2023-08-12T08:59:00.714Z,100983.31
2023-08-12T09:01:29.682Z,100977.41
2023-08-12T09:03:57.862Z,100979.41
2023-08-12T09:06:30.423Z,100979.41
2023-08-12T09:08:59.824Z,100979.03
2023-08-12T09:11:26.893Z,100971.03
2023-08-12T09:13:54.189Z,100965.13
2023-08-12T09:16:21.081Z,100972.63
2023-08-12T09:18:47.727Z,100968.88
2023-08-12T09:21:16.488Z,100980.69
2023-08-12T09:23:45.064Z,100968.53
2023-08-12T09:26:15.215Z,100974.50
2023-08-12T09:28:43.349Z,100970.03
2023-08-12T09:31:25.622Z,100976.69
2023-08-12T09:33:54.228Z,100973.13
2023-08-12T09:36:23.401Z,100973.13
2023-08-12T09:38:50.513Z,100966.19
2023-08-12T09:41:17.426Z,100969.28
2023-08-12T09:43:44.352Z,100980.28
2023-08-12T09:46:16.577Z,100967.81
2023-08-12T09:48:44.505Z,100961.75
2023-08-12T09:51:12.028Z,100954.22
2023-08-12T09:53:39.030Z,100949.47
2023-08-12T09:56:11.723Z,100948.41
2023-08-12T09:58:44.078Z,100939.09
2023-08-12T10:01:12.328Z,100932.53
2023-08-12T10:03:39.386Z,100926.56
2023-08-12T10:06:06.627Z,100922.44
2023-08-12T10:08:34.484Z,100927.13
2023-08-12T10:11:12.582Z,100926.16
2023-08-12T10:13:41.808Z,100932.16
2023-08-12T10:16:10.996Z,100936.88
2023-08-12T10:18:40.661Z,100939.81
2023-08-12T10:21:10.660Z,100936.28
2023-08-12T10:23:37.705Z,100936.22
2023-08-12T10:26:07.011Z,100933.31
2023-08-12T10:28:38.479Z,100935.91
2023-08-12T10:31:06.165Z,100927.66
2023-08-12T10:33:38.776Z,100931.00
2023-08-12T10:36:06.585Z,100934.56
2023-08-12T10:38:33.970Z,100931.38
2023-08-12T10:41:17.194Z,100937.06
2023-08-12T10:44:10.391Z,100936.88
2023-08-12T10:46:38.374Z,100943.91
2023-08-12T10:49:10.786Z,100941.88
2023-08-12T10:51:42.623Z,100939.75
2023-08-12T10:54:19.017Z,100914.88
2023-08-12T10:57:04.482Z,100907.94
2023-08-12T10:59:46.742Z,100901.19
2023-08-12T11:02:23.223Z,100895.31
2023-08-12T11:04:58.217Z,100890.72
2023-08-12T11:07:40.710Z,100874.19
2023-08-12T11:10:13.153Z,100866.59
2023-08-12T11:12:42.778Z,100871.13
2023-08-12T11:15:11.093Z,100874.16
2023-08-12T11:17:42.786Z,100880.00
2023-08-12T11:20:13.616Z,100877.47
2023-08-12T11:22:43.539Z,100879.72
2023-08-12T11:25:12.694Z,100876.03
2023-08-12T11:27:44.334Z,100867.81
2023-08-12T11:30:13.742Z,100873.22
2023-08-12T11:32:41.011Z,100864.81
2023-08-12T11:35:12.169Z,100862.88
2023-08-12T11:37:41.758Z,100859.53
2023-08-12T11:40:11.386Z,100859.16
2023-08-12T11:42:39.906Z,100855.50
2023-08-12T11:45:08.085Z,100854.63
2023-08-12T11:47:36.150Z,100855.34
2023-08-12T11:50:04.918Z,100862.25
2023-08-12T11:52:33.269Z,100856.19
2023-08-12T11:55:01.530Z,100855.34
2023-08-12T11:57:29.628Z,100852.94
2023-08-12T12:00:01.153Z,100852.19
2023-08-12T12:02:28.129Z,100848.69
2023-08-12T12:04:56.786Z,100839.97
2023-08-12T12:07:26.921Z,100845.03
2023-08-12T12:09:55.526Z,100845.22
2023-08-12T12:12:25.911Z,100831.50
2023-08-12T12:14:57.007Z,100827.88
2023-08-12T12:17:24.696Z,100831.84
2023-08-12T12:19:59.516Z,100827.94
2023-08-12T12:22:36.698Z,100824.19
2023-08-12T12:25:08.958Z,100810.72
2023-08-12T12:27:38.574Z,100815.44
2023-08-12T12:30:10.858Z,100817.53
2023-08-12T12:32:38.086Z,100806.44
2023-08-12T12:35:08.293Z,100778.31
2023-08-12T12:37:37.261Z,100784.06
2023-08-12T12:40:06.364Z,100791.03
2023-08-12T12:42:33.347Z,100784.66
2023-08-12T12:45:00.220Z,100785.81
2023-08-12T12:47:26.970Z,100783.06
2023-08-12T12:49:54.716Z,100779.38
2023-08-12T12:52:21.522Z,100778.78
2023-08-12T12:54:48.469Z,100783.59
2023-08-12T13:00:25.193Z,100776.25
2023-08-12T13:02:52.345Z,100767.06
2023-08-12T13:05:19.184Z,100766.22
2023-08-12T13:07:46.132Z,100757.72
2023-08-12T13:10:12.855Z,100761.22
2023-08-12T13:12:39.813Z,100754.84
2023-08-12T13:15:08.252Z,100760.50
2023-08-12T13:17:35.208Z,100756.13
2023-08-12T13:20:01.974Z,100756.53
2023-08-12T13:22:28.687Z,100752.03
2023-08-12T13:24:55.424Z,100756.94
2023-08-12T13:27:22.558Z,100761.22
2023-08-12T13:29:49.264Z,100759.44
2023-08-12T13:32:16.256Z,100769.22
2023-08-12T13:34:44.343Z,100765.97
2023-08-12T13:37:12.116Z,100777.66
2023-08-12T13:39:38.892Z,100778.25
2023-08-12T13:42:06.038Z,100768.53
2023-08-12T13:44:32.800Z,100766.59
2023-08-12T13:47:01.931Z,100772.41
2023-08-12T13:49:30.001Z,100768.66
2023-08-12T13:51:56.945Z,100782.03
2023-08-12T13:54:23.872Z,100778.97
2023-08-12T13:56:50.941Z,100781.31
2023-08-12T13:59:17.666Z,100776.88
2023-08-12T14:01:44.626Z,100767.34
2023-08-12T14:04:13.330Z,100782.44
2023-08-12T14:06:41.322Z,100777.69
2023-08-12T14:09:13.406Z,100782.22
2023-08-12T14:11:40.148Z,100783.97
2023-08-12T14:14:07.388Z,100778.22
2023-08-12T14:16:34.369Z,100785.88
2023-08-12T14:19:02.471Z,100785.38
2023-08-12T14:21:30.059Z,100787.03
2023-08-12T14:23:56.692Z,100779.16
2023-08-12T14:26:23.774Z,100784.25
2023-08-12T14:28:50.541Z,100794.47
2023-08-12T14:31:17.352Z,100798.88
2023-08-12T14:33:44.402Z,100803.31
2023-08-12T14:36:11.959Z,100811.50
2023-08-12T14:38:39.649Z,100800.19
2023-08-12T14:41:06.486Z,100805.25
2023-08-12T14:43:33.404Z,100803.63
2023-08-12T14:46:00.378Z,100801.44
2023-08-12T14:48:27.073Z,100810.06
2023-08-12T14:50:53.958Z,100804.97
2023-08-12T14:53:20.747Z,100803.84
2023-08-12T14:55:49.150Z,100800.69
2023-08-12T14:58:16.033Z,100792.84
2023-08-12T15:00:43.756Z,100786.88
2023-08-12T15:03:12.866Z,100793.47
2023-08-12T15:05:39.769Z,100792.53
2023-08-12T15:08:08.340Z,100792.25
2023-08-12T15:10:36.213Z,100793.53
2023-08-12T15:13:03.000Z,100794.81
2023-08-12T15:15:30.098Z,100794.44
2023-08-12T15:17:56.788Z,100788.44
2023-08-12T15:20:23.882Z,100782.31
2023-08-12T15:22:50.904Z,100783.66
2023-08-12T15:25:17.650Z,100777.56
2023-08-12T15:27:44.989Z,100789.28
2023-08-12T15:30:11.861Z,100801.03
2023-08-12T15:32:40.678Z,100810.88
2023-08-12T15:35:10.815Z,100796.06
2023-08-12T15:37:37.665Z,100786.78
2023-08-12T15:40:06.365Z,100791.31
2023-08-12T15:42:34.182Z,100802.59
2023-08-12T15:45:02.516Z,100793.28
2023-08-12T15:47:34.419Z,100809.09
2023-08-12T15:50:03.032Z,100821.72
2023-08-12T15:52:34.046Z,100803.19
2023-08-12T15:55:00.834Z,100810.66
2023-08-12T15:57:27.667Z,100814.31
2023-08-12T15:59:54.373Z,100799.63
2023-08-12T16:02:21.063Z,100802.16
2023-08-12T16:04:48.776Z,100803.94
2023-08-12T16:07:19.116Z,100806.00
2023-08-12T16:09:46.552Z,100806.00
2023-08-12T16:12:20.180Z,100797.84
2023-08-12T16:14:47.328Z,100787.00
2023-08-12T16:17:15.516Z,100794.31
2023-08-12T16:19:46.638Z,100787.41
2023-08-12T16:22:14.371Z,100791.84
2023-08-12T16:24:42.478Z,100803.00
2023-08-12T16:27:10.289Z,100797.97
2023-08-12T16:29:37.013Z,100796.72
2023-08-12T16:32:05.182Z,100787.03
2023-08-12T16:34:31.938Z,100809.34
2023-08-12T16:37:19.471Z,100811.72
2023-08-12T16:39:46.845Z,100801.22
2023-08-12T16:42:15.848Z,100807.72
2023-08-12T16:44:43.657Z,100822.19
2023-08-12T16:47:11.375Z,100815.31
2023-08-12T16:49:38.098Z,100825.75
2023-08-12T16:52:05.093Z,100828.41
2023-08-12T16:54:32.773Z,100814.59
2023-08-12T16:56:59.523Z,100816.59
2023-08-12T16:59:26.860Z,100815.78
2023-08-12T17:01:53.832Z,100817.66
2023-08-12T17:04:20.566Z,100828.97
2023-08-12T17:06:47.170Z,100825.59
2023-08-12T17:09:17.319Z,100833.97
2023-08-12T17:11:45.616Z,100834.69
2023-08-12T17:14:13.257Z,100831.91
2023-08-12T17:16:40.214Z,100834.06
2023-08-12T17:19:07.453Z,100847.44
2023-08-12T17:21:34.604Z,100852.97
2023-08-12T17:24:01.404Z,100846.03
2023-08-12T17:26:29.516Z,100846.56
2023-08-12T17:28:56.216Z,100857.75
2023-08-12T17:31:23.125Z,100860.09
2023-08-12T17:33:50.915Z,100850.34
2023-08-12T17:36:17.673Z,100865.09
2023-08-12T17:38:44.310Z,100859.78
2023-08-12T17:41:11.358Z,100865.47
2023-08-12T17:43:38.550Z,100859.13
2023-08-12T17:46:05.774Z,100850.03
2023-08-12T17:48:32.813Z,100853.44
2023-08-12T17:50:59.540Z,100853.16
2023-08-12T17:53:27.856Z,100870.00
2023-08-12T17:55:54.567Z,100870.94
2023-08-12T17:58:24.533Z,100885.16
2023-08-12T18:00:51.346Z,100883.22
2023-08-12T18:03:18.308Z,100885.19
2023-08-12T18:05:46.716Z,100886.78
2023-08-12T18:08:13.980Z,100886.63
2023-08-12T18:10:40.996Z,100896.97
2023-08-12T18:13:07.890Z,100888.91
2023-08-12T18:15:34.586Z,100892.44
2023-08-12T18:18:03.429Z,100911.78
2023-08-12T18:20:30.420Z,100912.69
2023-08-12T18:22:57.567Z,100923.53
2023-08-12T18:25:25.078Z,100920.63
2023-08-12T18:27:51.935Z,100921.50
2023-08-12T18:30:18.876Z,100928.06
2023-08-12T18:32:45.904Z,100928.94
2023-08-12T18:35:13.766Z,100939.06
2023-08-12T18:37:42.514Z,100944.72
2023-08-12T18:40:09.766Z,100948.28
2023-08-12T18:42:38.340Z,100950.38
2023-08-12T18:45:06.186Z,100954.25
2023-08-12T18:47:34.395Z,100959.06
2023-08-12T18:50:01.767Z,100951.00
2023-08-12T18:52:29.938Z,100958.34
2023-08-12T18:54:57.696Z,100969.59
2023-08-12T18:57:25.207Z,100971.44
2023-08-12T18:59:53.303Z,100987.22
2023-08-12T19:02:21.067Z,100988.63
2023-08-12T19:04:48.838Z,100982.56
2023-08-12T19:07:16.012Z,100988.25
2023-08-12T19:09:43.771Z,100984.81
2023-08-12T19:12:11.168Z,100994.28
2023-08-12T19:14:37.897Z,100993.56
2023-08-12T19:17:04.742Z,101002.84
2023-08-12T19:19:32.480Z,101003.91
2023-08-12T19:22:00.368Z,101006.66
2023-08-12T19:24:28.242Z,101020.59
2023-08-12T19:26:55.048Z,101023.50
2023-08-12T19:29:21.806Z,101029.22
2023-08-12T19:31:48.642Z,101032.25
2023-08-12T19:34:15.678Z,101034.03
2023-08-12T19:36:43.457Z,101031.28
2023-08-12T19:39:12.201Z,101027.72
2023-08-12T19:41:38.895Z,101036.03
2023-08-12T19:44:06.602Z,101042.63
2023-08-12T19:46:33.374Z,101040.28
2023-08-12T19:49:03.192Z,101048.59
2023-08-12T19:51:31.096Z,101047.84
2023-08-12T19:54:01.007Z,101054.78
2023-08-12T19:56:27.987Z,101053.59
2023-08-12T20:05:18.343Z,101061.88
2023-08-12T20:07:47.766Z,101057.25
2023-08-12T20:10:16.696Z,101057.34
2023-08-12T20:12:43.859Z,101060.22
2023-08-12T20:15:12.434Z,101054.28
2023-08-12T20:17:40.182Z,101054.28
2023-08-12T20:20:13.181Z,101060.84
2023-08-12T20:22:54.425Z,101063.72
2023-08-12T20:25:30.356Z,101064.94
2023-08-12T20:27:59.873Z,101068.72
2023-08-12T20:30:27.505Z,101073.44
2023-08-12T20:32:55.510Z,101074.47
2023-08-12T20:35:23.606Z,101068.25
2023-08-12T20:37:50.810Z,101073.84
2023-08-12T20:40:19.332Z,101074.94
2023-08-12T20:42:46.564Z,101070.38
2023-08-12T20:45:13.633Z,101064.09
2023-08-12T20:47:42.200Z,101071.56
2023-08-12T20:50:09.355Z,101068.88
2023-08-12T20:52:36.180Z,101074.47
2023-08-12T20:55:02.985Z,101070.88
2023-08-12T20:57:33.443Z,101064.63
2023-08-12T21:00:03.411Z,101066.56
2023-08-12T21:02:35.717Z,101069.38
2023-08-12T21:05:02.824Z,101065.78
2023-08-12T21:07:31.023Z,101068.59
2023-08-12T21:09:57.752Z,101069.63
2023-08-12T21:12:24.570Z,101062.47
2023-08-12T21:14:51.222Z,101064.41
2023-08-12T21:17:18.508Z,101066.44
2023-08-12T21:19:45.250Z,101065.75
2023-08-12T21:22:13.952Z,101066.81
2023-08-12T21:24:41.006Z,101065.16
2023-08-12T21:27:08.777Z,101070.75
2023-08-12T21:29:35.554Z,101058.03
2023-08-12T21:32:02.267Z,101063.50
2023-08-12T21:34:29.017Z,101060.88
2023-08-12T21:36:56.001Z,101069.22
2023-08-12T21:39:22.749Z,101060.28
2023-08-12T21:41:49.814Z,101064.94
2023-08-12T21:44:16.783Z,101065.13
2023-08-12T21:46:43.370Z,101068.94
2023-08-12T21:49:12.909Z,101070.09
2023-08-12T21:51:39.619Z,101068.44
2023-08-12T21:54:06.256Z,101072.34
2023-08-12T21:56:32.899Z,101076.28
2023-08-12T21:58:59.629Z,101071.00
2023-08-12T22:01:26.295Z,101080.41
2023-08-12T22:03:54.080Z,101079.59
2023-08-12T22:06:20.668Z,101077.94
2023-08-12T22:08:47.257Z,101076.16
2023-08-12T22:11:14.013Z,101080.97
2023-08-12T22:13:40.633Z,101076.81
2023-08-12T22:16:08.434Z,101079.88
2023-08-12T22:18:36.660Z,101087.22
2023-08-12T22:21:03.410Z,101074.50
2023-08-12T22:23:31.098Z,101089.09
2023-08-12T22:25:58.106Z,101084.69
2023-08-12T22:28:24.763Z,101085.56
2023-08-12T22:30:53.445Z,101086.50
2023-08-12T22:33:20.745Z,101096.63
2023-08-12T22:35:48.470Z,101093.22
2023-08-12T22:38:20.684Z,101086.00
2023-08-12T22:40:47.599Z,101095.16
2023-08-12T22:43:14.331Z,101091.53
2023-08-12T22:45:44.536Z,101093.22
2023-08-12T22:48:13.591Z,101095.03
2023-08-12T22:50:40.350Z,101092.28
2023-08-12T22:53:07.217Z,101089.56
2023-08-12T22:55:33.872Z,101090.50
2023-08-12T22:58:01.577Z,101085.03
2023-08-12T23:00:28.410Z,101087.88
2023-08-12T23:02:55.124Z,101086.09
2023-08-12T23:05:21.825Z,101090.72
2023-08-12T23:07:50.619Z,101088.94
2023-08-12T23:10:17.267Z,101077.16
2023-08-12T23:12:47.078Z,101090.00
2023-08-12T23:15:15.730Z,101091.88
2023-08-12T23:17:42.491Z,101089.13
2023-08-12T23:20:09.771Z,101090.13
2023-08-12T23:22:37.630Z,101085.63
2023-08-12T23:25:06.103Z,101083.91
2023-08-12T23:27:36.610Z,101087.63
2023-08-12T23:30:03.708Z,101087.75
2023-08-12T23:32:31.423Z,101094.22
2023-08-12T23:34:58.122Z,101091.50
2023-08-12T23:37:24.958Z,101087.16
2023-08-12T23:39:51.829Z,101092.75
2023-08-12T23:42:18.543Z,101091.88
2023-08-12T23:44:45.305Z,101084.75
2023-08-12T23:47:12.185Z,101094.88
2023-08-12T23:49:38.778Z,101091.28
2023-08-12T23:52:05.480Z,101096.91
2023-08-12T23:54:32.381Z,101092.44
2023-08-12T23:57:00.555Z,101087.97
2023-08-12T23:59:27.397Z,101088.00
